sensor_id;sensor_type;location;lat;lon;timestamp;pressure;altitude;pressure_sealevel;temperature;humidity
12949;BME280;6539;49.476;8.484;2023-02-12T00:01:21;102651.78;;;9.52;66.25
12949;BME280;6539;49.476;8.484;2023-02-12T00:03:50;102648.69;;;9.53;65.93
12949;BME280;6539;49.476;8.484;2023-02-12T00:06:16;102647.44;;;9.51;66.11
12949;BME280;6539;49.476;8.484;2023-02-12T00:08:47;102657.25;;;9.52;66.06
12949;BME280;6539;49.476;8.484;2023-02-12T00:11:19;102648.34;;;9.55;65.87
12949;BME280;6539;49.476;8.484;2023-02-12T00:13:47;102647.19;;;9.56;65.85
12949;BME280;6539;49.476;8.484;2023-02-12T00:16:21;102638.06;;;9.52;66.20
12949;BME280;6539;49.476;8.484;2023-02-12T00:18:55;102638.50;;;9.54;66.23
12949;BME280;6539;49.476;8.484;2023-02-12T00:21:22;102645.16;;;9.53;65.98
12949;BME280;6539;49.476;8.484;2023-02-12T00:23:48;102642.88;;;9.55;66.22
12949;BME280;6539;49.476;8.484;2023-02-12T00:26:18;102644.44;;;9.56;66.16
12949;BME280;6539;49.476;8.484;2023-02-12T00:28:49;102637.50;;;9.58;65.89
12949;BME280;6539;49.476;8.484;2023-02-12T00:31:28;102640.00;;;9.63;65.77
12949;BME280;6539;49.476;8.484;2023-02-12T00:33:57;102646.31;;;9.64;65.69
12949;BME280;6539;49.476;8.484;2023-02-12T00:36:27;102643.88;;;9.62;65.75
12949;BME280;6539;49.476;8.484;2023-02-12T00:38:55;102644.69;;;9.63;65.66
12949;BME280;6539;49.476;8.484;2023-02-12T00:41:26;102643.06;;;9.62;65.59
12949;BME280;6539;49.476;8.484;2023-02-12T00:43:54;102648.91;;;9.60;65.67
12949;BME280;6539;49.476;8.484;2023-02-12T00:46:20;102650.53;;;9.61;65.72
12949;BME280;6539;49.476;8.484;2023-02-12T00:48:46;102649.25;;;9.59;65.73
12949;BME280;6539;49.476;8.484;2023-02-12T00:51:12;102654.66;;;9.55;65.82
12949;BME280;6539;49.476;8.484;2023-02-12T00:53:43;102654.28;;;9.57;65.81
12949;BME280;6539;49.476;8.484;2023-02-12T00:56:09;102668.47;;;9.59;65.81
12949;BME280;6539;49.476;8.484;2023-02-12T00:58:34;102662.63;;;9.60;65.93
12949;BME280;6539;49.476;8.484;2023-02-12T01:01:00;102663.78;;;9.59;65.66
12949;BME280;6539;49.476;8.484;2023-02-12T01:03:29;102667.75;;;9.62;65.79
12949;BME280;6539;49.476;8.484;2023-02-12T01:05:56;102662.97;;;9.59;65.81
12949;BME280;6539;49.476;8.484;2023-02-12T01:08:22;102671.22;;;9.59;65.86
12949;BME280;6539;49.476;8.484;2023-02-12T01:11:03;102666.84;;;9.58;65.72
12949;BME280;6539;49.476;8.484;2023-02-12T01:13:33;102666.38;;;9.56;65.96
12949;BME280;6539;49.476;8.484;2023-02-12T01:16:16;102670.50;;;9.50;65.98
12949;BME280;6539;49.476;8.484;2023-02-12T01:18:45;102658.72;;;9.49;66.13
12949;BME280;6539;49.476;8.484;2023-02-12T01:21:24;102661.47;;;9.49;65.96
12949;BME280;6539;49.476;8.484;2023-02-12T01:23:54;102663.09;;;9.50;66.17
12949;BME280;6539;49.476;8.484;2023-02-12T01:26:20;102674.06;;;9.50;66.06
12949;BME280;6539;49.476;8.484;2023-02-12T01:28:54;102662.97;;;9.47;66.36
12949;BME280;6539;49.476;8.484;2023-02-12T01:31:25;102670.72;;;9.45;66.18
12949;BME280;6539;49.476;8.484;2023-02-12T01:33:56;102666.28;;;9.40;66.42
12949;BME280;6539;49.476;8.484;2023-02-12T01:36:26;102666.75;;;9.42;66.35
12949;BME280;6539;49.476;8.484;2023-02-12T01:38:52;102668.22;;;9.40;66.69
12949;BME280;6539;49.476;8.484;2023-02-12T01:41:25;102668.22;;;9.40;66.59
12949;BME280;6539;49.476;8.484;2023-02-12T01:46:55;102666.84;;;9.46;66.39
12949;BME280;6539;49.476;8.484;2023-02-12T01:49:40;102659.75;;;9.45;66.61
12949;BME280;6539;49.476;8.484;2023-02-12T01:52:17;102652.00;;;9.47;66.18
12949;BME280;6539;49.476;8.484;2023-02-12T01:54:49;102653.59;;;9.48;66.33
12949;BME280;6539;49.476;8.484;2023-02-12T01:57:16;102650.75;;;9.44;66.32
12949;BME280;6539;49.476;8.484;2023-02-12T01:59:47;102647.88;;;9.41;66.54
12949;BME280;6539;49.476;8.484;2023-02-12T02:02:17;102658.38;;;9.39;66.63
12949;BME280;6539;49.476;8.484;2023-02-12T02:04:50;102649.50;;;9.42;66.45
12949;BME280;6539;49.476;8.484;2023-02-12T02:07:19;102648.69;;;9.41;66.55
12949;BME280;6539;49.476;8.484;2023-02-12T02:09:54;102655.88;;;9.46;66.28
12949;BME280;6539;49.476;8.484;2023-02-12T02:12:24;102647.44;;;9.51;66.21
12949;BME280;6539;49.476;8.484;2023-02-12T02:15:10;102651.66;;;9.48;66.70
12949;BME280;6539;49.476;8.484;2023-02-12T02:31:42;102649.03;;;9.52;66.52
12949;BME280;6539;49.476;8.484;2023-02-12T02:35:17;102641.16;;;9.50;66.60
12949;BME280;6539;49.476;8.484;2023-02-12T02:37:48;102643.53;;;9.52;66.61
12949;BME280;6539;49.476;8.484;2023-02-12T02:40:31;102640.00;;;9.51;66.47
12949;BME280;6539;49.476;8.484;2023-02-12T02:43:17;102650.19;;;9.51;66.64
12949;BME280;6539;49.476;8.484;2023-02-12T02:45:53;102644.69;;;9.51;66.79
12949;BME280;6539;49.476;8.484;2023-02-12T02:48:51;102645.47;;;9.51;66.55
12949;BME280;6539;49.476;8.484;2023-02-12T02:51:26;102640.34;;;9.50;66.76
12949;BME280;6539;49.476;8.484;2023-02-12T02:54:04;102639.91;;;9.48;66.93
12949;BME280;6539;49.476;8.484;2023-02-12T02:56:44;102649.03;;;9.52;67.04
12949;BME280;6539;49.476;8.484;2023-02-12T02:59:20;102638.88;;;9.52;67.01
12949;BME280;6539;49.476;8.484;2023-02-12T03:02:02;102643.53;;;9.52;67.13
12949;BME280;6539;49.476;8.484;2023-02-12T03:04:40;102636.47;;;9.51;67.48
12949;BME280;6539;49.476;8.484;2023-02-12T03:07:15;102633.59;;;9.47;68.03
12949;BME280;6539;49.476;8.484;2023-02-12T03:10:13;102641.03;;;9.47;68.31
12949;BME280;6539;49.476;8.484;2023-02-12T03:12:56;102630.53;;;9.49;68.48
12949;BME280;6539;49.476;8.484;2023-02-12T03:15:38;102632.34;;;9.45;69.27
12949;BME280;6539;49.476;8.484;2023-02-12T03:18:11;102629.13;;;9.43;69.36
12949;BME280;6539;49.476;8.484;2023-02-12T03:20:49;102637.81;;;9.45;69.50
12949;BME280;6539;49.476;8.484;2023-02-12T03:23:29;102634.75;;;9.46;69.75
12949;BME280;6539;49.476;8.484;2023-02-12T03:28:34;102632.78;;;9.47;70.19
12949;BME280;6539;49.476;8.484;2023-02-12T03:31:18;102635.53;;;9.47;70.24
12949;BME280;6539;49.476;8.484;2023-02-12T03:36:58;102634.88;;;9.50;70.31
12949;BME280;6539;49.476;8.484;2023-02-12T03:42:20;102645.84;;;9.50;70.14
12949;BME280;6539;49.476;8.484;2023-02-12T03:47:46;102634.75;;;9.46;70.12
12949;BME280;6539;49.476;8.484;2023-02-12T03:53:04;102641.72;;;9.44;69.97
12949;BME280;6539;49.476;8.484;2023-02-12T03:55:35;102648.00;;;9.44;70.18
12949;BME280;6539;49.476;8.484;2023-02-12T03:58:09;102649.94;;;9.44;70.28
12949;BME280;6539;49.476;8.484;2023-02-12T04:00:39;102649.94;;;9.44;70.06
12949;BME280;6539;49.476;8.484;2023-02-12T04:03:06;102644.47;;;9.44;70.08
12949;BME280;6539;49.476;8.484;2023-02-12T04:05:34;102634.97;;;9.41;70.02
12949;BME280;6539;49.476;8.484;2023-02-12T04:08:03;102642.28;;;9.37;69.95
12949;BME280;6539;49.476;8.484;2023-02-12T04:10:46;102645.13;;;9.41;69.86
12949;BME280;6539;49.476;8.484;2023-02-12T04:13:30;102653.16;;;9.34;70.09
12949;BME280;6539;49.476;8.484;2023-02-12T04:16:06;102648.34;;;9.31;70.11
12949;BME280;6539;49.476;8.484;2023-02-12T04:18:44;102653.72;;;9.27;70.07
12949;BME280;6539;49.476;8.484;2023-02-12T04:24:24;102657.13;;;9.24;70.12
12949;BME280;6539;49.476;8.484;2023-02-12T04:27:20;102661.00;;;9.23;70.15
12949;BME280;6539;49.476;8.484;2023-02-12T04:32:49;102671.38;;;9.17;70.10
12949;BME280;6539;49.476;8.484;2023-02-12T04:38:26;102673.31;;;9.05;70.68
12949;BME280;6539;49.476;8.484;2023-02-12T04:40:55;102669.66;;;9.01;71.09
12949;BME280;6539;49.476;8.484;2023-02-12T04:43:33;102670.31;;;8.98;71.58
12949;BME280;6539;49.476;8.484;2023-02-12T04:46:03;102668.03;;;9.00;71.03
12949;BME280;6539;49.476;8.484;2023-02-12T04:48:46;102662.91;;;8.98;71.22
12949;BME280;6539;49.476;8.484;2023-02-12T04:51:14;102668.38;;;8.98;71.12
12949;BME280;6539;49.476;8.484;2023-02-12T04:53:42;102669.97;;;8.99;71.18
12949;BME280;6539;49.476;8.484;2023-02-12T04:56:11;102669.97;;;8.99;71.28
12949;BME280;6539;49.476;8.484;2023-02-12T04:58:40;102675.00;;;8.97;71.34
12949;BME280;6539;49.476;8.484;2023-02-12T05:01:09;102670.31;;;8.98;71.46
12949;BME280;6539;49.476;8.484;2023-02-12T05:03:38;102666.91;;;9.01;71.08
12949;BME280;6539;49.476;8.484;2023-02-12T05:06:07;102671.59;;;9.00;71.37
12949;BME280;6539;49.476;8.484;2023-02-12T05:08:33;102659.00;;;8.99;71.28
12949;BME280;6539;49.476;8.484;2023-02-12T05:11:07;102655.25;;;9.04;70.90
12949;BME280;6539;49.476;8.484;2023-02-12T05:13:34;102652.19;;;9.05;70.83
12949;BME280;6539;49.476;8.484;2023-02-12T05:16:04;102654.47;;;9.03;70.91
12949;BME280;6539;49.476;8.484;2023-02-12T05:18:31;102652.88;;;9.02;70.93
12949;BME280;6539;49.476;8.484;2023-02-12T05:21:00;102656.72;;;9.01;71.13
12949;BME280;6539;49.476;8.484;2023-02-12T05:23:34;102659.16;;;9.03;71.06
12949;BME280;6539;49.476;8.484;2023-02-12T05:26:03;102665.19;;;8.96;71.09
12949;BME280;6539;49.476;8.484;2023-02-12T05:28:30;102665.84;;;8.93;71.36
12949;BME280;6539;49.476;8.484;2023-02-12T05:31:03;102667.22;;;8.99;71.22
12949;BME280;6539;49.476;8.484;2023-02-12T05:33:30;102665.19;;;8.96;71.26
12949;BME280;6539;49.476;8.484;2023-02-12T05:36:08;102661.19;;;8.94;71.32
12949;BME280;6539;49.476;8.484;2023-02-12T05:38:40;102665.84;;;8.93;71.31
12949;BME280;6539;49.476;8.484;2023-02-12T05:41:13;102661.63;;;8.96;71.21
12949;BME280;6539;49.476;8.484;2023-02-12T05:43:39;102665.28;;;9.00;70.87
12949;BME280;6539;49.476;8.484;2023-02-12T05:46:09;102661.75;;;8.99;70.98
12949;BME280;6539;49.476;8.484;2023-02-12T05:48:39;102660.16;;;8.98;70.70
12949;BME280;6539;49.476;8.484;2023-02-12T05:51:14;102659.34;;;8.98;70.92
12949;BME280;6539;49.476;8.484;2023-02-12T05:53:42;102660.06;;;8.95;71.02
12949;BME280;6539;49.476;8.484;2023-02-12T05:56:22;102662.31;;;8.93;71.18
12949;BME280;6539;49.476;8.484;2023-02-12T05:58:57;102661.19;;;8.94;71.06
12949;BME280;6539;49.476;8.484;2023-02-12T06:01:53;102671.78;;;8.95;70.97
12949;BME280;6539;49.476;8.484;2023-02-12T06:04:24;102665.53;;;8.95;71.02
12949;BME280;6539;49.476;8.484;2023-02-12T06:06:51;102671.47;;;8.97;70.88
12949;BME280;6539;49.476;8.484;2023-02-12T06:09:21;102672.69;;;8.99;71.08
12949;BME280;6539;49.476;8.484;2023-02-12T06:11:47;102676.13;;;8.96;70.70
12949;BME280;6539;49.476;8.484;2023-02-12T06:14:16;102676.13;;;8.96;71.07
12949;BME280;6539;49.476;8.484;2023-02-12T06:16:49;102683.19;;;8.97;70.78
12949;BME280;6539;49.476;8.484;2023-02-12T06:19:19;102670.66;;;8.96;71.11
12949;BME280;6539;49.476;8.484;2023-02-12T06:21:45;102677.59;;;8.94;70.99
12949;BME280;6539;49.476;8.484;2023-02-12T06:24:13;102669.19;;;8.99;70.68
12949;BME280;6539;49.476;8.484;2023-02-12T06:26:39;102680.47;;;8.97;70.96
12949;BME280;6539;49.476;8.484;2023-02-12T06:29:05;102679.69;;;8.97;70.80
12949;BME280;6539;49.476;8.484;2023-02-12T06:31:37;102680.94;;;8.99;70.79
12949;BME280;6539;49.476;8.484;2023-02-12T06:34:06;102688.03;;;9.00;70.65
12949;BME280;6539;49.476;8.484;2023-02-12T06:36:36;102683.66;;;8.99;70.66
12949;BME280;6539;49.476;8.484;2023-02-12T06:39:03;102693.50;;;9.00;70.67
12949;BME280;6539;49.476;8.484;2023-02-12T06:41:29;102683.75;;;8.91;70.83
12949;BME280;6539;49.476;8.484;2023-02-12T06:43:57;102695.53;;;8.91;70.67
12949;BME280;6539;49.476;8.484;2023-02-12T06:46:26;102687.75;;;8.93;70.54
12949;BME280;6539;49.476;8.484;2023-02-12T06:48:53;102693.59;;;8.92;70.84
12949;BME280;6539;49.476;8.484;2023-02-12T06:51:23;102692.66;;;8.88;70.85
12949;BME280;6539;49.476;8.484;2023-02-12T06:53:51;102695.88;;;8.90;70.87
12949;BME280;6539;49.476;8.484;2023-02-12T06:56:20;102692.19;;;8.86;71.19
12949;BME280;6539;49.476;8.484;2023-02-12T06:58:55;102695.41;;;8.88;71.02
12949;BME280;6539;49.476;8.484;2023-02-12T07:01:25;102700.53;;;8.89;71.15
12949;BME280;6539;49.476;8.484;2023-02-12T07:03:58;102701.47;;;8.93;71.21
12949;BME280;6539;49.476;8.484;2023-02-12T07:06:26;102707.41;;;8.95;70.84
12949;BME280;6539;49.476;8.484;2023-02-12T07:08:54;102709.69;;;8.93;70.69
12949;BME280;6539;49.476;8.484;2023-02-12T07:11:29;102712.75;;;8.92;70.70
12949;BME280;6539;49.476;8.484;2023-02-12T07:13:56;102704.75;;;8.87;70.98
12949;BME280;6539;49.476;8.484;2023-02-12T07:16:22;102709.41;;;8.86;71.43
12949;BME280;6539;49.476;8.484;2023-02-12T07:18:50;102723.13;;;8.86;71.51
12949;BME280;6539;49.476;8.484;2023-02-12T07:21:21;102715.84;;;8.90;71.45
12949;BME280;6539;49.476;8.484;2023-02-12T07:23:50;102725.66;;;8.91;71.16
12949;BME280;6539;49.476;8.484;2023-02-12T07:26:20;102720.19;;;8.91;71.43
12949;BME280;6539;49.476;8.484;2023-02-12T07:28:45;102719.81;;;8.93;71.24
12949;BME280;6539;49.476;8.484;2023-02-12T07:31:21;102725.09;;;8.98;70.99
12949;BME280;6539;49.476;8.484;2023-02-12T07:33:54;102727.19;;;9.01;70.86
12949;BME280;6539;49.476;8.484;2023-02-12T07:36:22;102721.47;;;9.06;71.00
12949;BME280;6539;49.476;8.484;2023-02-12T07:38:50;102725.47;;;9.08;70.63
12949;BME280;6539;49.476;8.484;2023-02-12T07:41:21;102726.28;;;9.09;70.50
12949;BME280;6539;49.476;8.484;2023-02-12T07:43:53;102720.47;;;9.10;70.57
12949;BME280;6539;49.476;8.484;2023-02-12T07:46:30;102728.81;;;9.14;70.36
12949;BME280;6539;49.476;8.484;2023-02-12T07:49:02;102721.06;;;9.16;70.22
12949;BME280;6539;49.476;8.484;2023-02-12T07:51:33;102723.47;;;9.17;69.96
12949;BME280;6539;49.476;8.484;2023-02-12T07:54:00;102718.78;;;9.18;70.03
12949;BME280;6539;49.476;8.484;2023-02-12T07:56:30;102725.38;;;9.17;69.88
12949;BME280;6539;49.476;8.484;2023-02-12T07:58:59;102727.00;;;9.18;69.96
12949;BME280;6539;49.476;8.484;2023-02-12T08:01:37;102725.53;;;9.20;69.88
12949;BME280;6539;49.476;8.484;2023-02-12T08:04:10;102726.19;;;9.17;69.99
12949;BME280;6539;49.476;8.484;2023-02-12T08:06:42;102736.81;;;9.19;70.09
12949;BME280;6539;49.476;8.484;2023-02-12T08:09:13;102739.91;;;9.17;70.21
12949;BME280;6539;49.476;8.484;2023-02-12T08:11:40;102734.75;;;9.16;70.13
12949;BME280;6539;49.476;8.484;2023-02-12T08:14:12;102737.03;;;9.14;70.21
12949;BME280;6539;49.476;8.484;2023-02-12T08:16:43;102740.25;;;9.16;70.35
12949;BME280;6539;49.476;8.484;2023-02-12T08:19:09;102734.88;;;9.19;70.31
12949;BME280;6539;49.476;8.484;2023-02-12T08:21:35;102738.78;;;9.18;70.19
12949;BME280;6539;49.476;8.484;2023-02-12T08:24:04;102743.56;;;9.21;70.35
12949;BME280;6539;49.476;8.484;2023-02-12T08:26:33;102738.53;;;9.23;70.30
12949;BME280;6539;49.476;8.484;2023-02-12T08:29:10;102745.41;;;9.30;69.97
12949;BME280;6539;49.476;8.484;2023-02-12T08:31:42;102750.09;;;9.29;69.75
12949;BME280;6539;49.476;8.484;2023-02-12T08:34:25;102743.00;;;9.28;69.98
12949;BME280;6539;49.476;8.484;2023-02-12T08:36:53;102748.50;;;9.28;69.93
12949;BME280;6539;49.476;8.484;2023-02-12T08:39:24;102754.97;;;9.23;69.92
12949;BME280;6539;49.476;8.484;2023-02-12T08:41:53;102754.19;;;9.23;70.03
12949;BME280;6539;49.476;8.484;2023-02-12T08:44:19;102749.50;;;9.23;70.03
12949;BME280;6539;49.476;8.484;2023-02-12T08:46:48;102756.38;;;9.30;69.88
12949;BME280;6539;49.476;8.484;2023-02-12T08:49:26;102754.56;;;9.34;69.55
12949;BME280;6539;49.476;8.484;2023-02-12T08:51:55;102740.72;;;9.30;69.78
12949;BME280;6539;49.476;8.484;2023-02-12T08:54:28;102752.03;;;9.29;70.18
12949;BME280;6539;49.476;8.484;2023-02-12T08:57:00;102752.03;;;9.29;69.84
12949;BME280;6539;49.476;8.484;2023-02-12T08:59:26;102759.56;;;9.32;69.78
12949;BME280;6539;49.476;8.484;2023-02-12T09:01:53;102764.38;;;9.35;69.88
12949;BME280;6539;49.476;8.484;2023-02-12T09:04:25;102762.44;;;9.35;69.89
12949;BME280;6539;49.476;8.484;2023-02-12T09:06:52;102754.69;;;9.37;69.81
12949;BME280;6539;49.476;8.484;2023-02-12T09:09:18;102754.34;;;9.39;69.53
12949;BME280;6539;49.476;8.484;2023-02-12T09:11:47;102758.34;;;9.41;69.62
12949;BME280;6539;49.476;8.484;2023-02-12T09:14:18;102760.06;;;9.46;69.60
12949;BME280;6539;49.476;8.484;2023-02-12T09:16:48;102758.25;;;9.50;69.35
12949;BME280;6539;49.476;8.484;2023-02-12T09:19:19;102763.06;;;9.53;69.48
12949;BME280;6539;49.476;8.484;2023-02-12T09:21:50;102758.03;;;9.55;69.56
12949;BME280;6539;49.476;8.484;2023-02-12T09:24:18;102762.81;;;9.58;69.12
12949;BME280;6539;49.476;8.484;2023-02-12T09:26:44;102760.53;;;9.60;69.16
12949;BME280;6539;49.476;8.484;2023-02-12T09:29:10;102762.97;;;9.61;68.88
12949;BME280;6539;49.476;8.484;2023-02-12T09:31:36;102765.00;;;9.64;68.83
12949;BME280;6539;49.476;8.484;2023-02-12T09:34:05;102765.47;;;9.66;68.73
12949;BME280;6539;49.476;8.484;2023-02-12T09:36:31;102772.13;;;9.65;68.68
12949;BME280;6539;49.476;8.484;2023-02-12T09:38:58;102766.16;;;9.63;68.46
12949;BME280;6539;49.476;8.484;2023-02-12T09:42:08;102761.34;;;9.60;69.39
12949;BME280;6539;49.476;8.484;2023-02-12T09:50:55;102779.63;;;9.68;69.56
12949;BME280;6539;49.476;8.484;2023-02-12T09:53:28;102777.72;;;9.69;69.35
12949;BME280;6539;49.476;8.484;2023-02-12T09:55:56;102777.72;;;9.69;69.43
12949;BME280;6539;49.476;8.484;2023-02-12T10:01:16;102778.75;;;9.76;69.53
12949;BME280;6539;49.476;8.484;2023-02-12T10:03:47;102776.59;;;9.82;69.16
12949;BME280;6539;49.476;8.484;2023-02-12T10:06:25;102771.91;;;9.82;69.00
12949;BME280;6539;49.476;8.484;2023-02-12T10:12:05;102771.34;;;9.89;68.92
12949;BME280;6539;49.476;8.484;2023-02-12T10:18:07;102778.28;;;9.98;68.83
12949;BME280;6539;49.476;8.484;2023-02-12T10:21:11;102769.84;;;10.04;69.05
12949;BME280;6539;49.476;8.484;2023-02-12T10:26:52;102759.00;;;10.19;68.62
12949;BME280;6539;49.476;8.484;2023-02-12T10:29:24;102764.13;;;10.45;71.07
12949;BME280;6539;49.476;8.484;2023-02-12T10:34:32;102759.88;;;10.47;67.96
12949;BME280;6539;49.476;8.484;2023-02-12T10:37:36;102751.66;;;10.47;67.70
12949;BME280;6539;49.476;8.484;2023-02-12T10:40:20;102754.38;;;10.47;67.34
12949;BME280;6539;49.476;8.484;2023-02-12T10:42:51;102750.38;;;10.45;67.30
12949;BME280;6539;49.476;8.484;2023-02-12T10:45:31;102749.56;;;10.44;67.16
12949;BME280;6539;49.476;8.484;2023-02-12T10:48:18;102747.63;;;10.45;67.56
12949;BME280;6539;49.476;8.484;2023-02-12T10:51:07;102744.09;;;10.44;67.58
12949;BME280;6539;49.476;8.484;2023-02-12T10:53:44;102737.91;;;10.47;67.50
12949;BME280;6539;49.476;8.484;2023-02-12T10:56:13;102746.25;;;10.51;67.63
12949;BME280;6539;49.476;8.484;2023-02-12T11:01:33;102736.38;;;10.62;67.15
12949;BME280;6539;49.476;8.484;2023-02-12T11:04:24;102738.75;;;10.63;67.40
12949;BME280;6539;49.476;8.484;2023-02-12T11:07:05;102742.88;;;10.69;66.88
12949;BME280;6539;49.476;8.484;2023-02-12T11:12:02;102725.91;;;10.80;67.07
12949;BME280;6539;49.476;8.484;2023-02-12T11:14:31;102734.69;;;10.85;66.91
12949;BME280;6539;49.476;8.484;2023-02-12T11:16:59;102731.69;;;10.90;66.95
12949;BME280;6539;49.476;8.484;2023-02-12T11:19:30;102729.03;;;10.94;66.33
12949;BME280;6539;49.476;8.484;2023-02-12T11:22:11;102721.69;;;10.98;66.28
12949;BME280;6539;49.476;8.484;2023-02-12T11:24:45;102733.03;;;10.96;66.15
12949;BME280;6539;49.476;8.484;2023-02-12T11:29:43;102726.25;;;11.06;66.37
12949;BME280;6539;49.476;8.484;2023-02-12T11:32:19;102720.47;;;11.11;66.12
12949;BME280;6539;49.476;8.484;2023-02-12T11:35:15;102716.34;;;11.17;65.92
12949;BME280;6539;49.476;8.484;2023-02-12T11:37:45;102712.97;;;11.23;65.85
12949;BME280;6539;49.476;8.484;2023-02-12T11:40:27;102704.44;;;11.28;65.72
12949;BME280;6539;49.476;8.484;2023-02-12T11:43:00;102708.09;;;11.32;65.86
12949;BME280;6539;49.476;8.484;2023-02-12T11:45:49;102699.22;;;11.39;65.51
12949;BME280;6539;49.476;8.484;2023-02-12T11:48:28;102701.72;;;11.44;65.14
12949;BME280;6539;49.476;8.484;2023-02-12T11:50:59;102701.09;;;11.50;65.07
12949;BME280;6539;49.476;8.484;2023-02-12T11:53:31;102700.28;;;11.50;64.97
12949;BME280;6539;49.476;8.484;2023-02-12T11:56:02;102694.09;;;11.53;64.58
12949;BME280;6539;49.476;8.484;2023-02-12T11:58:30;102696.03;;;11.52;64.55
12949;BME280;6539;49.476;8.484;2023-02-12T12:04:05;102692.66;;;11.59;64.13
12949;BME280;6539;49.476;8.484;2023-02-12T12:09:35;102694.44;;;11.67;63.35
12949;BME280;6539;49.476;8.484;2023-02-12T12:12:23;102682.63;;;11.67;63.65
12949;BME280;6539;49.476;8.484;2023-02-12T12:15:00;102677.47;;;11.65;64.12
12949;BME280;6539;49.476;8.484;2023-02-12T12:18:00;102686.19;;;11.67;63.56
12949;BME280;6539;49.476;8.484;2023-02-12T12:21:10;102681.56;;;11.71;63.96
12949;BME280;6539;49.476;8.484;2023-02-12T12:24:16;102675.38;;;11.74;63.56
12949;BME280;6539;49.476;8.484;2023-02-12T12:27:11;102672.53;;;11.71;63.66
12949;BME280;6539;49.476;8.484;2023-02-12T12:29:57;102672.88;;;11.69;63.52
12949;BME280;6539;49.476;8.484;2023-02-12T12:32:36;102678.81;;;11.71;63.83
12949;BME280;6539;49.476;8.484;2023-02-12T12:35:20;102667.19;;;11.78;63.20
12949;BME280;6539;49.476;8.484;2023-02-12T12:38:25;102661.59;;;11.74;63.32
12949;BME280;6539;49.476;8.484;2023-02-12T12:41:17;102665.50;;;11.73;63.42
12949;BME280;6539;49.476;8.484;2023-02-12T12:53:03;102650.91;;;11.88;62.61
12949;BME280;6539;49.476;8.484;2023-02-12T12:56:04;102643.47;;;11.89;62.47
12949;BME280;6539;49.476;8.484;2023-02-12T13:02:21;102641.50;;;11.89;62.49
12949;BME280;6539;49.476;8.484;2023-02-12T13:14:37;102625.81;;;12.09;61.49
12949;BME280;6539;49.476;8.484;2023-02-12T13:22:56;102611.69;;;12.30;60.86
12949;BME280;6539;49.476;8.484;2023-02-12T13:28:50;102608.59;;;12.31;60.41
12949;BME280;6539;49.476;8.484;2023-02-12T13:31:22;102612.34;;;12.23;61.14
12949;BME280;6539;49.476;8.484;2023-02-12T13:33:57;102612.22;;;12.16;61.11
12949;BME280;6539;49.476;8.484;2023-02-12T13:36:24;102616.91;;;12.15;61.73
12949;BME280;6539;49.476;8.484;2023-02-12T13:41:55;102609.97;;;12.21;61.32
12949;BME280;6539;49.476;8.484;2023-02-12T13:44:46;102604.00;;;12.19;61.29
12949;BME280;6539;49.476;8.484;2023-02-12T13:56:52;102586.34;;;12.20;61.20
12949;BME280;6539;49.476;8.484;2023-02-12T14:05:04;102583.94;;;12.19;61.96
12949;BME280;6539;49.476;8.484;2023-02-12T14:07:42;102578.78;;;12.17;61.93
12949;BME280;6539;49.476;8.484;2023-02-12T14:12:49;102577.19;;;12.16;62.18
12949;BME280;6539;49.476;8.484;2023-02-12T14:15:33;102577.56;;;12.15;62.06
12949;BME280;6539;49.476;8.484;2023-02-12T14:18:43;102574.75;;;12.11;61.83
12949;BME280;6539;49.476;8.484;2023-02-12T14:23:44;102569.09;;;12.04;61.99
12949;BME280;6539;49.476;8.484;2023-02-12T14:26:22;102576.91;;;12.02;61.92
12949;BME280;6539;49.476;8.484;2023-02-12T14:34:35;102574.09;;;11.99;62.09
12949;BME280;6539;49.476;8.484;2023-02-12T14:36:47;102576.03;;;11.98;62.21
12949;BME280;6539;49.476;8.484;2023-02-12T14:41:50;102567.41;;;12.00;62.31
12949;BME280;6539;49.476;8.484;2023-02-12T14:46:57;102561.91;;;12.00;62.57
12949;BME280;6539;49.476;8.484;2023-02-12T14:49:45;102551.59;;;11.97;62.75
12949;BME280;6539;49.476;8.484;2023-02-12T14:52:19;102551.19;;;11.95;62.67
12949;BME280;6539;49.476;8.484;2023-02-12T14:54:56;102554.72;;;11.95;62.46
12949;BME280;6539;49.476;8.484;2023-02-12T14:57:31;102549.59;;;11.94;62.72
12949;BME280;6539;49.476;8.484;2023-02-12T15:00:39;102544.91;;;11.94;62.79
12949;BME280;6539;49.476;8.484;2023-02-12T15:03:17;102544.09;;;11.94;63.06
12949;BME280;6539;49.476;8.484;2023-02-12T15:08:45;102549.53;;;11.90;62.96
12949;BME280;6539;49.476;8.484;2023-02-12T15:11:27;102542.22;;;11.98;63.48
12949;BME280;6539;49.476;8.484;2023-02-12T15:14:06;102533.28;;;12.04;63.58
12949;BME280;6539;49.476;8.484;2023-02-12T15:22:37;102539.44;;;11.98;62.83
12949;BME280;6539;49.476;8.484;2023-02-12T15:25:27;102533.50;;;11.96;62.74
12949;BME280;6539;49.476;8.484;2023-02-12T15:28:16;102535.47;;;11.95;62.75
12949;BME280;6539;49.476;8.484;2023-02-12T15:30:45;102539.00;;;11.96;63.03
12949;BME280;6539;49.476;8.484;2023-02-12T15:33:26;102540.97;;;11.95;63.22
12949;BME280;6539;49.476;8.484;2023-02-12T15:36:00;102540.25;;;11.98;63.49
12949;BME280;6539;49.476;8.484;2023-02-12T15:38:36;102537.94;;;12.00;63.87
12949;BME280;6539;49.476;8.484;2023-02-12T15:41:05;102539.50;;;12.01;64.42
12949;BME280;6539;49.476;8.484;2023-02-12T15:43:39;102538.75;;;12.01;64.41
12949;BME280;6539;49.476;8.484;2023-02-12T15:46:17;102540.69;;;12.00;64.52
12949;BME280;6539;49.476;8.484;2023-02-12T15:48:43;102538.38;;;12.02;64.85
12949;BME280;6539;49.476;8.484;2023-02-12T15:51:25;102537.19;;;12.03;64.89
12949;BME280;6539;49.476;8.484;2023-02-12T15:53:57;102543.16;;;12.05;64.58
12949;BME280;6539;49.476;8.484;2023-02-12T15:56:32;102540.31;;;12.02;64.74
12949;BME280;6539;49.476;8.484;2023-02-12T15:59:02;102541.06;;;11.99;65.03
12949;BME280;6539;49.476;8.484;2023-02-12T16:01:33;102535.47;;;11.95;65.42
12949;BME280;6539;49.476;8.484;2023-02-12T16:04:07;102534.59;;;11.91;65.54
12949;BME280;6539;49.476;8.484;2023-02-12T16:06:35;102541.63;;;11.89;65.37
12949;BME280;6539;49.476;8.484;2023-02-12T16:09:07;102543.13;;;11.86;65.80
12949;BME280;6539;49.476;8.484;2023-02-12T16:11:38;102544.69;;;11.84;65.95
12949;BME280;6539;49.476;8.484;2023-02-12T16:14:22;102535.53;;;11.80;66.06